createdAt,value
2017-02-26T00:00:23.412Z,11.87
2017-02-26T00:01:22.461Z,11.02
2017-02-26T00:02:21.580Z,12.27
2017-02-26T00:03:20.587Z,12.82
2017-02-26T00:04:19.756Z,11.22
2017-02-26T00:05:18.812Z,11.15
2017-02-26T00:06:17.551Z,10.57
2017-02-26T00:07:16.720Z,12.70
2017-02-26T00:08:15.441Z,11.22
2017-02-26T00:09:14.710Z,12.32
2017-02-26T00:10:13.446Z,11.85
2017-02-26T00:11:12.450Z,12.07
2017-02-26T00:12:11.576Z,11.87
2017-02-26T00:13:10.678Z,11.68
2017-02-26T00:14:09.650Z,12.05
2017-02-26T00:15:08.601Z,13.08
2017-02-26T00:16:07.643Z,11.18
2017-02-26T00:17:06.407Z,12.02
2017-02-26T00:18:05.697Z,11.43
2017-02-26T00:19:04.543Z,12.47
2017-02-26T00:20:03.469Z,11.85
2017-02-26T00:21:02.691Z,11.28
2017-02-26T00:22:01.440Z,12.08
2017-02-26T00:23:00.165Z,11.65
2017-02-26T00:23:58.875Z,11.93
2017-02-26T00:24:57.798Z,11.88
2017-02-26T00:25:56.665Z,12.43
2017-02-26T00:26:56.382Z,11.73
2017-02-26T00:27:55.118Z,12.92
2017-02-26T00:28:53.869Z,11.22
2017-02-26T00:29:52.800Z,13.82
2017-02-26T00:30:51.496Z,12.35
2017-02-26T00:31:50.387Z,14.02
2017-02-26T00:32:49.665Z,12.08
2017-02-26T00:33:48.309Z,11.73
2017-02-26T00:34:47.007Z,12.10
2017-02-26T00:35:45.690Z,12.38
2017-02-26T00:36:44.443Z,10.97
2017-02-26T00:37:43.343Z,12.27
2017-02-26T00:38:42.660Z,12.03
2017-02-26T00:39:42.130Z,11.73
2017-02-26T00:40:40.827Z,12.78
2017-02-26T00:41:40.126Z,10.87
2017-02-26T00:42:39.235Z,10.25
2017-02-26T00:43:38.165Z,15.62
2017-02-26T00:44:37.359Z,12.25
2017-02-26T00:45:36.052Z,14.80
2017-02-26T00:46:35.263Z,12.10
2017-02-26T00:47:34.385Z,11.23
2017-02-26T00:48:33.577Z,13.65
2017-02-26T00:49:32.277Z,12.37
2017-02-26T00:50:31.237Z,14.38
2017-02-26T00:51:29.910Z,11.80
2017-02-26T00:52:28.620Z,11.65
2017-02-26T00:53:27.665Z,13.00
2017-02-26T00:54:29.793Z,11.97
2017-02-26T00:55:28.923Z,11.37
2017-02-26T00:56:30.604Z,12.75
2017-02-26T00:57:29.315Z,15.27
2017-02-26T00:58:28.151Z,11.97
2017-02-26T00:59:26.847Z,11.13
2017-02-26T01:00:26.574Z,12.55
2017-02-26T01:01:25.276Z,12.52
2017-02-26T01:02:24.247Z,11.85
2017-02-26T01:03:23.123Z,12.68
2017-02-26T01:04:21.838Z,10.97
2017-02-26T01:05:21.552Z,11.75
2017-02-26T01:06:20.641Z,11.50
2017-02-26T01:07:19.559Z,14.33
2017-02-26T01:08:18.566Z,11.68
2017-02-26T01:09:17.630Z,12.70
2017-02-26T01:10:16.351Z,11.90
2017-02-26T01:11:15.364Z,13.63
2017-02-26T01:12:14.295Z,11.02
2017-02-26T01:13:13.300Z,12.13
2017-02-26T01:14:12.541Z,13.65
2017-02-26T01:15:11.462Z,12.20
2017-02-26T01:16:10.432Z,11.05
2017-02-26T01:17:10.019Z,9.85
2017-02-26T01:18:09.064Z,13.80
2017-02-26T01:19:07.817Z,13.92
2017-02-26T01:20:07.192Z,12.05
2017-02-26T01:21:05.883Z,10.00
2017-02-26T01:22:05.038Z,11.52
2017-02-26T01:23:03.824Z,11.65
2017-02-26T01:24:02.552Z,13.65
2017-02-26T01:25:01.255Z,10.63
2017-02-26T01:26:00.452Z,11.32
2017-02-26T01:26:59.494Z,10.68
2017-02-26T01:27:58.433Z,10.67
2017-02-26T01:28:57.176Z,10.48
2017-02-26T01:29:55.931Z,11.38
2017-02-26T01:30:54.655Z,11.25
2017-02-26T01:31:53.716Z,16.83
2017-02-26T01:32:52.960Z,11.57
2017-02-26T01:33:51.670Z,14.60
2017-02-26T01:34:50.411Z,11.48
2017-02-26T01:35:49.506Z,11.83
2017-02-26T01:36:48.236Z,13.67
2017-02-26T01:37:47.219Z,11.85
2017-02-26T01:38:45.917Z,15.12
2017-02-26T01:39:44.629Z,13.40
2017-02-26T01:40:43.427Z,11.42
2017-02-26T01:41:42.159Z,11.60
2017-02-26T01:42:40.860Z,11.93
2017-02-26T01:43:40.304Z,11.83
2017-02-26T01:44:39.338Z,11.90
2017-02-26T01:45:38.194Z,11.05
2017-02-26T01:46:36.947Z,13.62
2017-02-26T01:47:35.676Z,13.03
2017-02-26T01:48:34.395Z,12.43
2017-02-26T01:49:33.330Z,10.87
2017-02-26T01:50:32.378Z,12.87
2017-02-26T01:51:31.072Z,13.75
2017-02-26T01:52:29.821Z,11.83
2017-02-26T01:53:28.846Z,16.05
2017-02-26T01:54:27.571Z,12.68
2017-02-26T01:55:26.555Z,13.53
2017-02-26T01:56:25.299Z,11.48
2017-02-26T01:57:24.035Z,11.98
2017-02-26T01:58:22.918Z,13.37
2017-02-26T01:59:22.044Z,13.02
2017-02-26T02:00:25.019Z,13.00
2017-02-26T02:01:24.139Z,12.45
2017-02-26T02:02:22.884Z,13.08
2017-02-26T02:03:21.559Z,14.10
2017-02-26T02:04:20.828Z,12.40
2017-02-26T02:05:19.568Z,11.78
2017-02-26T02:06:18.313Z,13.98
2017-02-26T02:07:17.228Z,12.60
2017-02-26T02:08:16.257Z,12.57
2017-02-26T02:09:14.992Z,15.52
2017-02-26T02:10:14.003Z,15.73
2017-02-26T02:11:12.884Z,12.00
2017-02-26T02:12:12.246Z,15.22
2017-02-26T02:13:11.363Z,15.68
2017-02-26T02:14:10.484Z,12.35
2017-02-26T02:15:09.220Z,11.92
2017-02-26T02:16:08.434Z,13.28
2017-02-26T02:17:07.186Z,13.25
2017-02-26T02:18:05.949Z,12.12
2017-02-26T02:19:05.227Z,17.50
2017-02-26T02:20:04.179Z,14.58
2017-02-26T02:21:03.108Z,11.65
2017-02-26T02:22:01.872Z,13.65
2017-02-26T02:23:00.598Z,12.75
2017-02-26T02:23:59.878Z,15.87
2017-02-26T02:24:59.111Z,17.08
2017-02-26T02:25:57.804Z,13.15
2017-02-26T02:26:56.860Z,15.80
2017-02-26T02:27:55.626Z,13.12
2017-02-26T02:28:54.341Z,11.90
2017-02-26T02:29:53.060Z,14.62
2017-02-26T02:30:52.033Z,12.63
2017-02-26T02:31:51.037Z,12.95
2017-02-26T02:32:49.771Z,14.80
2017-02-26T02:33:48.927Z,12.72
2017-02-26T02:34:47.675Z,12.93
2017-02-26T02:35:46.387Z,14.62
2017-02-26T02:36:45.366Z,14.28
2017-02-26T02:37:44.160Z,16.00
2017-02-26T02:38:42.904Z,13.67
2017-02-26T02:39:41.664Z,14.37
2017-02-26T02:40:40.397Z,13.43
2017-02-26T02:41:39.359Z,11.67
2017-02-26T02:42:38.445Z,13.60
2017-02-26T02:43:38.220Z,12.70
2017-02-26T02:44:37.319Z,12.10
2017-02-26T02:45:36.055Z,14.45
2017-02-26T02:46:35.269Z,13.12
2017-02-26T02:47:34.320Z,12.80
2017-02-26T02:48:33.608Z,17.10
2017-02-26T02:49:32.770Z,13.57
2017-02-26T02:50:31.936Z,13.95
2017-02-26T02:51:30.704Z,12.63
2017-02-26T02:52:29.451Z,12.57
2017-02-26T02:53:28.386Z,13.45
2017-02-26T02:54:27.996Z,13.85
2017-02-26T02:55:27.378Z,13.43
2017-02-26T02:56:26.636Z,12.90
2017-02-26T02:57:25.386Z,15.58
2017-02-26T02:58:24.381Z,16.07
2017-02-26T02:59:23.092Z,13.67
2017-02-26T03:00:22.111Z,13.90
2017-02-26T03:01:21.121Z,12.80
2017-02-26T03:02:20.136Z,17.12
2017-02-26T03:03:18.876Z,13.52
2017-02-26T03:04:17.616Z,13.33
2017-02-26T03:05:16.579Z,13.92
2017-02-26T03:06:15.730Z,15.45
2017-02-26T03:07:14.445Z,15.00
2017-02-26T03:08:13.223Z,14.17
2017-02-26T03:09:12.193Z,13.80
2017-02-26T03:10:11.341Z,13.67
2017-02-26T03:11:10.110Z,14.62
2017-02-26T03:12:09.364Z,14.15
2017-02-26T03:13:08.420Z,14.43
2017-02-26T03:14:07.193Z,13.40
2017-02-26T03:15:05.919Z,13.42
2017-02-26T03:16:04.704Z,13.65
2017-02-26T03:17:03.833Z,14.47
2017-02-26T03:18:03.224Z,13.43
2017-02-26T03:19:02.406Z,14.08
2017-02-26T03:20:01.924Z,16.93
2017-02-26T03:21:00.623Z,16.28
2017-02-26T03:21:59.383Z,14.02
2017-02-26T03:22:58.464Z,16.65
2017-02-26T03:23:57.583Z,15.08
2017-02-26T03:24:56.638Z,14.73
2017-02-26T03:25:55.391Z,13.93
2017-02-26T03:26:54.341Z,17.93
2017-02-26T03:27:53.081Z,14.23
2017-02-26T03:28:51.842Z,14.45
2017-02-26T03:29:51.056Z,14.82
2017-02-26T03:30:50.137Z,14.30
2017-02-26T03:31:49.311Z,15.27
2017-02-26T03:32:48.348Z,15.70
2017-02-26T03:33:47.095Z,14.23
2017-02-26T03:34:45.831Z,14.18
2017-02-26T03:35:44.839Z,16.48
2017-02-26T03:36:43.769Z,17.10
2017-02-26T03:37:42.684Z,14.47
2017-02-26T03:38:41.991Z,14.83
2017-02-26T03:39:41.200Z,15.98
2017-02-26T03:40:40.378Z,16.00
2017-02-26T03:41:39.746Z,14.97
2017-02-26T03:42:38.735Z,14.60
2017-02-26T03:43:37.517Z,16.63
2017-02-26T03:44:36.247Z,16.00
2017-02-26T03:45:35.180Z,16.28
2017-02-26T03:46:35.182Z,16.30
2017-02-26T03:47:34.232Z,16.23
2017-02-26T03:48:33.171Z,17.33
2017-02-26T03:49:32.192Z,17.47
2017-02-26T03:50:30.928Z,15.42
2017-02-26T03:51:29.874Z,16.80
2017-02-26T03:52:28.551Z,17.17
2017-02-26T03:53:27.651Z,15.73
2017-02-26T03:54:26.418Z,15.32
2017-02-26T03:55:25.135Z,19.38
2017-02-26T03:56:23.869Z,15.48
2017-02-26T03:57:22.959Z,16.07
2017-02-26T03:58:21.680Z,18.33
2017-02-26T03:59:20.840Z,16.58
2017-02-26T04:00:19.889Z,16.07
2017-02-26T04:01:18.622Z,17.20
2017-02-26T04:02:17.369Z,15.30
2017-02-26T04:03:16.131Z,16.33
2017-02-26T04:04:15.207Z,16.92
2017-02-26T04:05:14.425Z,16.37
2017-02-26T04:06:13.456Z,16.92
2017-02-26T04:07:12.244Z,18.08
2017-02-26T04:08:11.024Z,26.47
2017-02-26T04:09:09.740Z,16.83
2017-02-26T04:10:09.080Z,18.88
2017-02-26T04:11:08.040Z,18.90
2017-02-26T04:12:07.229Z,18.02
2017-02-26T04:13:06.157Z,16.68
2017-02-26T04:14:05.091Z,17.98
2017-02-26T04:15:03.841Z,15.98
2017-02-26T04:16:02.573Z,17.43
2017-02-26T04:17:01.710Z,16.05
2017-02-26T04:18:00.765Z,19.10
2017-02-26T04:18:59.524Z,17.68
2017-02-26T04:19:58.225Z,17.88
2017-02-26T04:20:57.006Z,19.00
2017-02-26T04:21:55.755Z,17.97
2017-02-26T04:22:54.715Z,18.20
2017-02-26T04:23:53.458Z,18.00
2017-02-26T04:24:52.421Z,18.03
2017-02-26T04:25:51.144Z,18.33
2017-02-26T04:26:50.275Z,21.02
2017-02-26T04:27:49.336Z,20.10
2017-02-26T04:28:48.703Z,17.28
2017-02-26T04:29:47.439Z,17.80
2017-02-26T04:30:46.698Z,15.65
2017-02-26T04:31:45.535Z,15.80
2017-02-26T04:32:44.297Z,19.68
2017-02-26T04:33:43.049Z,16.12
2017-02-26T04:34:42.037Z,17.93
2017-02-26T04:35:40.742Z,16.23
2017-02-26T04:36:39.485Z,16.77
2017-02-26T04:37:38.211Z,18.18
2017-02-26T04:38:37.155Z,17.32
2017-02-26T04:39:35.868Z,19.00
2017-02-26T04:40:35.048Z,19.57
2017-02-26T04:41:34.167Z,18.73
2017-02-26T04:42:32.936Z,16.57
2017-02-26T04:43:31.655Z,19.17
2017-02-26T04:44:30.361Z,18.47
2017-02-26T04:45:29.268Z,17.02
2017-02-26T04:46:28.629Z,18.22
2017-02-26T04:47:27.552Z,20.30
2017-02-26T04:48:26.288Z,17.07
2017-02-26T04:49:25.038Z,16.23
2017-02-26T04:50:23.750Z,16.48
2017-02-26T04:51:22.493Z,19.10
2017-02-26T04:52:22.263Z,18.43
2017-02-26T04:53:21.173Z,18.08
2017-02-26T04:54:19.906Z,17.02
2017-02-26T04:55:18.654Z,17.25
2017-02-26T04:56:18.132Z,18.77
2017-02-26T04:57:16.957Z,20.12
2017-02-26T04:58:16.111Z,18.25
2017-02-26T04:59:14.883Z,21.45
2017-02-26T05:00:13.672Z,19.53
2017-02-26T05:01:12.393Z,20.02
2017-02-26T05:02:11.140Z,22.20
2017-02-26T05:03:10.311Z,18.92
2017-02-26T05:04:09.689Z,19.00
2017-02-26T05:05:08.404Z,18.25
2017-02-26T05:06:07.793Z,20.63
2017-02-26T05:07:06.527Z,17.00
2017-02-26T05:08:05.246Z,18.75
2017-02-26T05:09:04.451Z,18.23
2017-02-26T05:10:03.674Z,19.17
2017-02-26T05:11:02.723Z,19.98
2017-02-26T05:12:01.444Z,19.80
2017-02-26T05:13:00.159Z,19.52
2017-02-26T05:13:58.922Z,18.52
2017-02-26T05:14:57.957Z,19.47
2017-02-26T05:15:57.181Z,17.32
2017-02-26T05:16:55.902Z,18.28
2017-02-26T05:17:54.633Z,22.08
2017-02-26T05:18:53.314Z,18.47
2017-02-26T05:19:52.081Z,17.15
2017-02-26T05:20:50.828Z,19.28
2017-02-26T05:21:49.870Z,20.22
2017-02-26T05:22:48.643Z,19.68
2017-02-26T05:23:47.317Z,19.73
2017-02-26T05:24:46.060Z,16.62
2017-02-26T05:25:44.761Z,16.67
2017-02-26T05:26:43.467Z,17.47
2017-02-26T05:27:42.400Z,16.82
2017-02-26T05:28:41.121Z,17.23
2017-02-26T05:29:40.128Z,18.43
2017-02-26T05:30:39.047Z,19.85
2017-02-26T05:31:37.760Z,17.73
2017-02-26T05:32:36.694Z,17.92
2017-02-26T05:33:35.790Z,18.35
2017-02-26T05:34:34.888Z,18.88
2017-02-26T05:35:33.629Z,20.18
2017-02-26T05:36:32.370Z,16.82
2017-02-26T05:37:31.319Z,18.52
2017-02-26T05:38:30.070Z,17.20
2017-02-26T05:39:29.400Z,19.23
2017-02-26T05:40:28.125Z,19.48
2017-02-26T05:41:26.901Z,20.03
2017-02-26T05:42:25.795Z,19.43
2017-02-26T05:43:24.863Z,18.70
2017-02-26T05:44:23.587Z,18.33
2017-02-26T05:45:22.658Z,17.35
2017-02-26T05:46:21.996Z,20.57
2017-02-26T05:47:22.820Z,19.75
2017-02-26T05:48:21.565Z,20.27
2017-02-26T05:49:20.269Z,20.52
2017-02-26T05:50:19.296Z,19.62
2017-02-26T05:51:18.701Z,18.22
2017-02-26T05:52:17.425Z,16.48
2017-02-26T05:53:16.551Z,18.98
2017-02-26T05:54:15.296Z,18.28
2017-02-26T05:55:14.039Z,18.53
2017-02-26T05:56:12.821Z,17.32
2017-02-26T05:57:12.617Z,18.35
2017-02-26T05:58:11.542Z,20.93
2017-02-26T05:59:10.248Z,16.27
2017-02-26T06:00:09.128Z,18.43
2017-02-26T06:01:07.867Z,22.45
2017-02-26T06:02:07.163Z,22.18
2017-02-26T06:03:06.288Z,18.77
2017-02-26T06:04:05.019Z,19.05
2017-02-26T06:05:04.144Z,23.17
2017-02-26T06:06:02.846Z,18.93
2017-02-26T06:07:01.574Z,20.83
2017-02-26T06:08:00.301Z,20.05
2017-02-26T06:08:59.795Z,18.07
2017-02-26T06:09:58.808Z,18.15
2017-02-26T06:10:57.536Z,18.47
2017-02-26T06:11:56.233Z,18.33
2017-02-26T06:12:54.912Z,20.17
2017-02-26T06:13:53.659Z,19.27
2017-02-26T06:14:52.789Z,18.37
2017-02-26T06:15:51.961Z,17.45
2017-02-26T06:16:50.692Z,19.73
2017-02-26T06:17:49.757Z,17.63
2017-02-26T06:18:48.722Z,19.68
2017-02-26T06:19:47.927Z,24.58
2017-02-26T06:20:46.947Z,22.67
2017-02-26T06:21:45.636Z,19.75
2017-02-26T06:22:44.660Z,22.00
2017-02-26T06:23:43.386Z,19.40
2017-02-26T06:24:42.134Z,18.90
2017-02-26T06:25:40.839Z,21.88
2017-02-26T06:26:39.823Z,16.48
2017-02-26T06:27:38.490Z,22.60
2017-02-26T06:28:37.184Z,18.43
2017-02-26T06:29:36.246Z,19.60
2017-02-26T06:30:34.918Z,17.65
2017-02-26T06:31:33.630Z,17.18
2017-02-26T06:32:32.896Z,22.73
2017-02-26T06:33:31.599Z,20.40
2017-02-26T06:34:30.473Z,18.90
2017-02-26T06:35:29.246Z,19.13
2017-02-26T06:36:28.644Z,19.15
2017-02-26T06:37:27.360Z,18.62
2017-02-26T06:38:26.896Z,19.90
2017-02-26T06:39:25.603Z,21.68
2017-02-26T06:40:24.292Z,20.85
2017-02-26T06:41:23.041Z,17.57
2017-02-26T06:42:22.395Z,19.15
2017-02-26T06:43:21.267Z,19.70
2017-02-26T06:44:21.303Z,18.55
2017-02-26T06:45:20.024Z,22.73
2017-02-26T06:46:19.677Z,20.42
2017-02-26T06:47:18.359Z,18.52
2017-02-26T06:48:17.052Z,17.60
2017-02-26T06:49:15.772Z,17.60
2017-02-26T06:50:14.900Z,17.47
2017-02-26T06:51:13.607Z,20.27
2017-02-26T06:52:12.679Z,23.13
2017-02-26T06:53:11.414Z,19.40
2017-02-26T06:54:10.315Z,18.27
2017-02-26T06:55:09.004Z,19.67
2017-02-26T06:56:08.172Z,19.22
2017-02-26T06:57:06.913Z,18.48
2017-02-26T06:58:06.176Z,20.27
2017-02-26T06:59:04.903Z,17.70
2017-02-26T07:00:03.624Z,18.23
2017-02-26T07:01:02.331Z,22.57
2017-02-26T07:02:01.477Z,19.35
2017-02-26T07:03:00.540Z,21.10
2017-02-26T07:03:59.577Z,19.23
2017-02-26T07:04:58.332Z,20.15
2017-02-26T07:05:57.016Z,18.62
2017-02-26T07:06:55.761Z,19.70
2017-02-26T07:07:55.051Z,20.70
2017-02-26T07:08:53.767Z,17.38
2017-02-26T07:09:53.205Z,20.20
2017-02-26T07:10:51.934Z,20.63
2017-02-26T07:11:50.633Z,18.32
2017-02-26T07:12:49.524Z,18.82
2017-02-26T07:13:48.679Z,20.70
2017-02-26T07:14:47.855Z,18.53
2017-02-26T07:15:46.617Z,19.27
2017-02-26T07:16:45.705Z,22.33
2017-02-26T07:17:44.439Z,20.47
2017-02-26T07:18:43.180Z,17.90
2017-02-26T07:19:42.243Z,19.58
2017-02-26T07:20:40.956Z,18.38
2017-02-26T07:21:40.116Z,23.52
2017-02-26T07:22:39.085Z,21.02
2017-02-26T07:23:37.809Z,20.85
2017-02-26T07:24:36.904Z,18.27
2017-02-26T07:25:35.889Z,19.25
2017-02-26T07:26:34.644Z,20.88
2017-02-26T07:27:33.331Z,20.28
2017-02-26T07:28:32.071Z,21.93
2017-02-26T07:29:30.793Z,21.08
2017-02-26T07:30:29.501Z,20.57
2017-02-26T07:31:28.444Z,17.53
2017-02-26T07:32:27.129Z,17.92
2017-02-26T07:33:26.299Z,18.08
2017-02-26T07:34:25.049Z,19.20
2017-02-26T07:35:23.766Z,20.93
2017-02-26T07:36:22.431Z,20.05
2017-02-26T07:37:21.589Z,17.97
2017-02-26T07:38:20.300Z,21.97
2017-02-26T07:39:19.040Z,19.95
2017-02-26T07:40:17.726Z,17.87
2017-02-26T07:41:16.573Z,20.83
2017-02-26T07:42:15.278Z,18.68
2017-02-26T07:43:14.428Z,18.78
2017-02-26T07:44:13.357Z,17.35
2017-02-26T07:45:12.651Z,17.32
2017-02-26T07:46:12.369Z,18.13
2017-02-26T07:47:11.103Z,18.53
2017-02-26T07:48:09.819Z,17.48
2017-02-26T07:49:08.933Z,19.72
2017-02-26T07:50:07.641Z,21.35
2017-02-26T07:51:07.415Z,19.28
2017-02-26T07:52:06.131Z,19.98
2017-02-26T07:53:04.796Z,18.78
2017-02-26T07:54:03.800Z,20.60
2017-02-26T07:55:02.835Z,19.07
2017-02-26T07:56:01.549Z,18.50
2017-02-26T07:57:01.480Z,18.23
2017-02-26T07:58:00.683Z,18.08
2017-02-26T07:58:59.439Z,17.82
2017-02-26T07:59:58.227Z,18.55
2017-02-26T08:00:57.299Z,18.58
2017-02-26T08:01:56.262Z,17.67
2017-02-26T08:02:55.012Z,16.85
2017-02-26T08:03:53.745Z,17.00
2017-02-26T08:04:52.452Z,21.30
2017-02-26T08:05:55.040Z,20.48
2017-02-26T08:06:53.964Z,20.17
2017-02-26T08:07:55.184Z,19.78
2017-02-26T08:08:54.702Z,16.82
2017-02-26T08:09:53.715Z,16.42
2017-02-26T08:10:52.487Z,16.85
2017-02-26T08:11:51.533Z,19.15
2017-02-26T08:12:50.670Z,20.47
2017-02-26T08:13:49.430Z,28.72
2017-02-26T08:14:48.364Z,30.58
2017-02-26T08:15:47.474Z,21.42
2017-02-26T08:16:46.292Z,18.02
2017-02-26T08:17:47.112Z,18.95
2017-02-26T08:18:46.045Z,18.73
2017-02-26T08:19:44.964Z,18.53
2017-02-26T08:20:43.679Z,19.53
2017-02-26T08:21:42.593Z,18.50
2017-02-26T08:22:41.669Z,17.70
2017-02-26T08:23:40.400Z,16.57
2017-02-26T08:24:40.120Z,17.00
2017-02-26T08:25:39.863Z,16.83
2017-02-26T08:26:38.756Z,18.35
2017-02-26T08:27:37.531Z,17.40
2017-02-26T08:28:36.578Z,17.37
2017-02-26T08:29:35.687Z,20.40
2017-02-26T08:30:34.435Z,18.00
2017-02-26T08:31:33.167Z,17.47
2017-02-26T08:32:32.214Z,16.50
2017-02-26T08:33:31.300Z,15.30
2017-02-26T08:34:29.990Z,18.02
2017-02-26T08:35:29.204Z,15.70
2017-02-26T08:36:28.029Z,20.50
2017-02-26T08:37:27.061Z,15.22
2017-02-26T08:38:25.825Z,14.82
2017-02-26T08:39:24.643Z,16.12
2017-02-26T08:40:23.384Z,17.28
2017-02-26T08:41:22.348Z,18.10
2017-02-26T08:42:21.455Z,14.67
2017-02-26T08:43:20.147Z,15.05
2017-02-26T08:44:18.853Z,18.17
2017-02-26T08:45:17.539Z,17.08
2017-02-26T08:46:16.751Z,15.58
2017-02-26T08:47:15.724Z,15.83
2017-02-26T08:48:15.433Z,17.62
2017-02-26T08:49:14.352Z,16.17
2017-02-26T08:50:13.079Z,17.05
2017-02-26T08:51:12.376Z,15.10
2017-02-26T08:52:11.445Z,15.05
2017-02-26T08:53:10.491Z,15.70
2017-02-26T08:54:09.224Z,15.77
2017-02-26T08:55:08.432Z,13.72
2017-02-26T08:56:07.596Z,15.68
2017-02-26T08:57:06.368Z,13.57
2017-02-26T08:58:05.120Z,15.93
2017-02-26T08:59:04.392Z,15.18
2017-02-26T09:00:06.579Z,15.92
2017-02-26T09:01:06.324Z,15.48
2017-02-26T09:02:05.579Z,13.38
2017-02-26T09:03:05.021Z,18.33
2017-02-26T09:04:04.601Z,16.45
2017-02-26T09:05:04.024Z,14.38
2017-02-26T09:06:02.816Z,14.50
2017-02-26T09:07:02.011Z,15.97
2017-02-26T09:08:00.971Z,15.30
2017-02-26T09:09:00.457Z,16.78
2017-02-26T09:10:05.106Z,16.45
2017-02-26T09:11:05.030Z,13.60
2017-02-26T09:12:04.118Z,13.98
2017-02-26T09:13:04.217Z,14.30
2017-02-26T09:14:04.077Z,14.12
2017-02-26T09:15:04.065Z,15.50
2017-02-26T09:16:02.861Z,17.82
2017-02-26T09:17:03.486Z,17.05
2017-02-26T09:18:02.217Z,15.77
2017-02-26T09:19:01.340Z,14.78
2017-02-26T09:20:00.060Z,15.13
2017-02-26T09:20:59.408Z,15.42
2017-02-26T09:21:59.222Z,14.27
2017-02-26T09:22:58.000Z,14.83
2017-02-26T09:23:56.996Z,14.75
2017-02-26T09:24:56.513Z,16.77
2017-02-26T09:25:55.365Z,14.52
2017-02-26T09:26:54.347Z,15.22
2017-02-26T09:27:53.143Z,16.58
2017-02-26T09:28:52.669Z,15.60
2017-02-26T09:29:51.384Z,16.15
2017-02-26T09:30:50.218Z,15.03
2017-02-26T09:31:49.209Z,17.43
2017-02-26T09:32:48.255Z,14.18
2017-02-26T09:33:47.611Z,15.48
2017-02-26T09:34:46.721Z,15.87
2017-02-26T09:35:46.050Z,16.27
2017-02-26T09:36:44.792Z,13.78
2017-02-26T09:37:43.560Z,14.12
2017-02-26T09:38:43.388Z,15.07
2017-02-26T09:39:42.502Z,14.35
2017-02-26T09:40:41.786Z,15.07
2017-02-26T09:41:40.929Z,15.10
2017-02-26T09:42:41.137Z,14.35
2017-02-26T09:43:40.412Z,17.00
2017-02-26T09:44:39.834Z,14.68
2017-02-26T09:45:39.004Z,16.38
2017-02-26T09:46:52.799Z,14.53
2017-02-26T09:47:53.121Z,14.62
2017-02-26T09:48:52.166Z,16.13
2017-02-26T09:49:51.524Z,16.57
2017-02-26T09:50:50.293Z,15.15
2017-02-26T09:51:49.281Z,17.45
2017-02-26T09:52:49.656Z,19.77
2017-02-26T09:53:49.146Z,15.15
2017-02-26T09:54:48.294Z,16.43
2017-02-26T09:55:48.217Z,15.83
2017-02-26T09:56:50.384Z,15.35
2017-02-26T09:57:50.476Z,15.57
2017-02-26T09:58:49.408Z,16.75
2017-02-26T09:59:48.473Z,15.35
2017-02-26T10:00:49.296Z,19.27
2017-02-26T10:01:48.448Z,15.90
2017-02-26T10:02:47.254Z,15.15
2017-02-26T10:03:46.346Z,13.92
2017-02-26T10:04:46.622Z,16.38
2017-02-26T10:05:45.650Z,16.35
2017-02-26T10:06:45.188Z,15.75
2017-02-26T10:07:44.122Z,15.90
2017-02-26T10:08:43.325Z,19.43
2017-02-26T10:09:42.456Z,13.85
2017-02-26T10:10:41.420Z,16.62
2017-02-26T10:11:40.134Z,13.88
2017-02-26T10:12:39.543Z,15.12
2017-02-26T10:13:38.285Z,16.97
2017-02-26T10:14:37.323Z,17.25
2017-02-26T10:15:36.616Z,13.33
2017-02-26T10:16:35.955Z,19.70
2017-02-26T10:17:34.869Z,18.37
2017-02-26T10:18:35.525Z,16.10
2017-02-26T10:19:34.423Z,13.88
2017-02-26T10:20:33.470Z,15.07
2017-02-26T10:21:32.387Z,14.35
2017-02-26T10:22:31.115Z,14.40
2017-02-26T10:23:29.847Z,18.80
2017-02-26T10:24:29.737Z,49.60
2017-02-26T10:25:28.500Z,16.85
2017-02-26T10:26:27.253Z,57.23
2017-02-26T10:27:26.427Z,72.85
2017-02-26T10:28:27.932Z,22.63
2017-02-26T10:29:26.635Z,18.62
2017-02-26T10:30:26.187Z,38.75
2017-02-26T10:31:24.934Z,12.80
2017-02-26T10:32:23.878Z,13.93
2017-02-26T10:33:22.831Z,15.82
2017-02-26T10:34:21.771Z,27.73
2017-02-26T10:35:21.255Z,21.20
2017-02-26T10:36:20.606Z,16.55
2017-02-26T10:37:19.315Z,16.47
2017-02-26T10:38:18.818Z,12.83
2017-02-26T10:39:17.724Z,15.28
2017-02-26T10:40:16.491Z,13.15
2017-02-26T10:41:15.379Z,17.32
2017-02-26T10:42:14.320Z,11.72
2017-02-26T10:43:13.307Z,16.47
2017-02-26T10:44:12.154Z,12.33
2017-02-26T10:45:10.830Z,13.68
2017-02-26T10:46:09.924Z,10.65
2017-02-26T10:47:08.623Z,13.12
2017-02-26T10:48:07.785Z,13.58
2017-02-26T10:49:06.718Z,13.27
2017-02-26T10:50:06.461Z,11.87
2017-02-26T10:51:05.449Z,11.78
2017-02-26T10:52:04.435Z,13.12
2017-02-26T10:53:03.155Z,13.53
2017-02-26T10:54:02.562Z,11.28
2017-02-26T10:55:01.620Z,13.70
2017-02-26T10:56:01.327Z,13.30
2017-02-26T10:57:00.362Z,10.68
2017-02-26T10:57:59.095Z,13.75
2017-02-26T10:58:58.492Z,10.90
2017-02-26T10:59:57.719Z,14.45
2017-02-26T11:00:56.625Z,11.27
2017-02-26T11:01:55.558Z,11.37
2017-02-26T11:02:56.019Z,11.15
2017-02-26T11:03:54.746Z,13.60
2017-02-26T11:04:53.373Z,10.95
2017-02-26T11:05:52.535Z,14.50
2017-02-26T11:06:51.439Z,13.45
2017-02-26T11:07:50.189Z,13.03
2017-02-26T11:08:49.471Z,12.28
2017-02-26T11:09:48.383Z,10.93
2017-02-26T11:10:47.840Z,12.22
2017-02-26T11:11:47.904Z,10.95
2017-02-26T11:12:46.883Z,10.63
2017-02-26T11:13:45.649Z,13.42
2017-02-26T11:14:44.562Z,10.25
2017-02-26T11:15:43.830Z,12.13
2017-02-26T11:16:42.915Z,10.95
2017-02-26T11:17:44.033Z,13.72
2017-02-26T11:18:43.363Z,12.37
2017-02-26T11:19:42.455Z,10.48
2017-02-26T11:20:41.324Z,13.40
2017-02-26T11:21:40.422Z,11.37
2017-02-26T11:22:39.200Z,11.82
2017-02-26T11:23:38.955Z,10.90
2017-02-26T11:24:38.137Z,10.87
2017-02-26T11:25:36.724Z,12.45
2017-02-26T11:26:35.767Z,14.73
2017-02-26T11:27:35.139Z,12.03
2017-02-26T11:28:33.798Z,12.23
2017-02-26T11:29:32.515Z,11.03
2017-02-26T11:30:31.183Z,10.85
2017-02-26T11:31:29.921Z,10.83
2017-02-26T11:32:29.367Z,12.65
2017-02-26T11:33:28.334Z,12.03
2017-02-26T11:34:27.908Z,13.57
2017-02-26T11:35:26.625Z,11.07
2017-02-26T11:36:25.293Z,12.15
2017-02-26T11:37:24.653Z,10.62
2017-02-26T11:38:24.433Z,11.75
2017-02-26T11:39:23.028Z,13.05
2017-02-26T11:40:21.681Z,11.23
2017-02-26T11:41:20.340Z,12.05
2017-02-26T11:42:19.630Z,13.28
2017-02-26T11:43:18.978Z,11.05
2017-02-26T11:44:18.280Z,9.00
2017-02-26T11:45:17.017Z,12.20
2017-02-26T11:46:19.042Z,10.18
2017-02-26T11:47:17.722Z,10.55
2017-02-26T11:48:16.427Z,9.90
2017-02-26T11:49:15.669Z,13.90
2017-02-26T11:50:14.335Z,15.08
2017-02-26T11:51:13.875Z,10.37
2017-02-26T11:52:12.668Z,9.90
2017-02-26T11:53:11.362Z,10.98
2017-02-26T11:54:09.992Z,10.32
2017-02-26T11:55:09.069Z,10.25
2017-02-26T11:56:10.012Z,11.60
2017-02-26T11:57:09.046Z,9.30
2017-02-26T11:58:07.951Z,12.32
2017-02-26T11:59:06.586Z,9.80
2017-02-26T12:00:05.877Z,17.93
2017-02-26T12:01:04.579Z,12.10
2017-02-26T12:02:03.268Z,9.90
2017-02-26T12:03:01.971Z,10.27
2017-02-26T12:04:01.027Z,11.72
2017-02-26T12:04:59.683Z,11.85
2017-02-26T12:05:58.351Z,9.60
2017-02-26T12:06:57.038Z,7.98
2017-02-26T12:07:55.691Z,8.18
2017-02-26T12:08:54.363Z,9.37
2017-02-26T12:09:53.683Z,8.82
2017-02-26T12:10:52.365Z,8.75
2017-02-26T12:11:51.023Z,9.32
2017-02-26T12:12:49.631Z,7.88
2017-02-26T12:13:48.192Z,10.78
2017-02-26T12:14:46.878Z,9.92
2017-02-26T12:15:45.511Z,9.12
2017-02-26T12:16:44.671Z,11.77
2017-02-26T12:17:43.382Z,13.90
2017-02-26T12:18:42.063Z,8.13
2017-02-26T12:19:41.046Z,10.27
2017-02-26T12:20:39.690Z,11.13
2017-02-26T12:21:40.946Z,9.78
2017-02-26T12:22:40.023Z,10.48
2017-02-26T12:23:38.634Z,10.48
2017-02-26T12:24:37.266Z,8.18
2017-02-26T12:25:36.222Z,8.65
2017-02-26T12:26:34.766Z,8.45
2017-02-26T12:27:33.383Z,8.43
2017-02-26T12:28:32.383Z,8.40
2017-02-26T12:29:31.010Z,7.90
2017-02-26T12:30:30.081Z,12.05
2017-02-26T12:31:31.835Z,9.23
2017-02-26T12:32:30.374Z,8.48
2017-02-26T12:33:33.750Z,8.30
2017-02-26T12:34:32.379Z,10.42
2017-02-26T12:35:30.944Z,10.10
2017-02-26T12:36:29.559Z,7.47
2017-02-26T12:37:32.562Z,8.63
2017-02-26T12:38:31.164Z,11.93
2017-02-26T12:39:30.647Z,5.78
2017-02-26T12:40:29.247Z,7.72
2017-02-26T12:41:27.882Z,10.22